Accueil
METAR-TAF:

METAR-TAF

Aéroports :

Blackstone, Virginie, États-Unis

latitude: 37-04-26N, longitude: 077-57-09W, altitude: 134 m

Observation

Le bulletin a été fait il y a 22 minutes, à 16:35 UTC
Vent calme
Température 3°C
Humidité 52%
Pression 1029 hPa
Visibilité: 16.1 km
Nuages épars à une hauteur de 4400 ft

METAR: KBKT 141635Z AUTO 00000KT 10SM SCT044 03/M06 A3039 RMK AO1 T00331059

Heure: 11:57 (16:57 UTC)


TAF: absent

Observations et prévisions météorologiques de plus de 4000 aéroports (messages METAR et TAF).

Les stations disponibles sont représentées par des disques jaunes et rouges sur la carte.

Passer la souris dessus pour voir le nom de la station.

Cliquer dessus pour voir les observations et prévisions météorologiques.

Pour changer de carte: cliquez sur les boutons verts avec une croix noire pour zoomer, sur le bouton vert avec un tiret pour effectuer un zoom arrière, ou sur les flèches vertes pour les cartes adjacentes.


METAR-TAF: